CES5130 ZBAD-ZSPD
Flight info
| Callsign | CES5130 |
|---|---|
| Flight time | 1h 45m |
| Altitude | 41100 |
| Route | ELKUR W40 YQG W142 DALIM A593 DPX A470 DALNU W166 ZJ W167 SASAN R343 EKIMU |
| Aircraft | A359/H-SDE2E3GHIJ3J4J5LM1ORWXY/LB1D1 |
Departure
| Time | 2026-05-06 03:58 |
|---|---|
| Airport | Beijing Daxing International Airport (ZBAD) |
Arrival
| Time | 2026-05-06 05:44 |
|---|---|
| Airport | Shanghai Pudong International Airport (ZSPD) |
| Time | Latitude | Longitude | Altitude | Speed | Heading |
|---|---|---|---|---|---|
| 2026-05-06 03:16 | 39.50682 | 116.40752 | 95 ft | 0 kts | 313° |
| 2026-05-06 03:36 | 39.50677 | 116.40759 | 95 ft | 2 kts | 310° |
| 2026-05-06 03:37 | 39.50669 | 116.40771 | 96 ft | 2 kts | 310° |
| 2026-05-06 03:37 | 39.50661 | 116.40783 | 96 ft | 2 kts | 308° |
| 2026-05-06 03:37 | 39.50654 | 116.40796 | 96 ft | 2 kts | 304° |
| 2026-05-06 03:37 | 39.50647 | 116.40809 | 96 ft | 1 kts | 298° |
| 2026-05-06 03:38 | 39.50642 | 116.40824 | 96 ft | 2 kts | 283° |
| 2026-05-06 03:38 | 39.50641 | 116.40839 | 97 ft | 1 kts | 245° |
| 2026-05-06 03:42 | 39.50640 | 116.40837 | 94 ft | 2 kts | 243° |
| 2026-05-06 03:42 | 39.50634 | 116.40822 | 94 ft | 0 kts | 245° |
| 2026-05-06 03:43 | 39.50634 | 116.40821 | 94 ft | 1 kts | 245° |
| 2026-05-06 03:43 | 39.50624 | 116.40786 | 96 ft | 4 kts | 251° |
| 2026-05-06 03:43 | 39.50606 | 116.40719 | 93 ft | 7 kts | 246° |
| 2026-05-06 03:43 | 39.50590 | 116.40680 | 92 ft | 8 kts | 238° |
| 2026-05-06 03:44 | 39.50574 | 116.40652 | 92 ft | 0 kts | 232° |
| 2026-05-06 03:44 | 39.50571 | 116.40647 | 92 ft | 0 kts | 231° |
| 2026-05-06 03:44 | 39.50571 | 116.40646 | 92 ft | 0 kts | 231° |
| 2026-05-06 03:44 | 39.50566 | 116.40639 | 93 ft | 5 kts | 230° |
| 2026-05-06 03:45 | 39.50498 | 116.40555 | 92 ft | 13 kts | 227° |
| 2026-05-06 03:45 | 39.50465 | 116.40495 | 95 ft | 11 kts | 240° |
| 2026-05-06 03:45 | 39.50455 | 116.40468 | 95 ft | 3 kts | 245° |
| 2026-05-06 03:45 | 39.50452 | 116.40458 | 95 ft | 0 kts | 246° |
| 2026-05-06 03:46 | 39.50451 | 116.40458 | 95 ft | 0 kts | 247° |
| 2026-05-06 03:46 | 39.50453 | 116.40449 | 94 ft | 2 kts | 275° |
| 2026-05-06 03:46 | 39.50463 | 116.40432 | 96 ft | 1 kts | 317° |
| 2026-05-06 03:46 | 39.50485 | 116.40413 | 96 ft | 7 kts | 326° |
| 2026-05-06 03:47 | 39.50545 | 116.40374 | 95 ft | 11 kts | 342° |
| 2026-05-06 03:47 | 39.50626 | 116.40319 | 94 ft | 14 kts | 322° |
| 2026-05-06 03:47 | 39.50711 | 116.40249 | 96 ft | 15 kts | 340° |
| 2026-05-06 03:47 | 39.50812 | 116.40215 | 92 ft | 15 kts | 352° |
| 2026-05-06 03:48 | 39.50927 | 116.40204 | 92 ft | 18 kts | 354° |
| 2026-05-06 03:48 | 39.51047 | 116.40178 | 93 ft | 17 kts | 350° |
| 2026-05-06 03:48 | 39.51119 | 116.40118 | 95 ft | 10 kts | 302° |
| 2026-05-06 03:48 | 39.51171 | 116.40061 | 96 ft | 9 kts | 340° |
| 2026-05-06 03:49 | 39.51240 | 116.40045 | 95 ft | 11 kts | 354° |
| 2026-05-06 03:49 | 39.51319 | 116.40038 | 93 ft | 11 kts | 354° |
| 2026-05-06 03:49 | 39.51397 | 116.40020 | 95 ft | 12 kts | 351° |
| 2026-05-06 03:49 | 39.51427 | 116.40013 | 96 ft | 0 kts | 351° |
| 2026-05-06 03:50 | 39.51430 | 116.40009 | 93 ft | 1 kts | 326° |
| 2026-05-06 03:50 | 39.51434 | 116.39987 | 96 ft | 6 kts | 284° |
| 2026-05-06 03:50 | 39.51417 | 116.39922 | 97 ft | 8 kts | 221° |
| 2026-05-06 03:50 | 39.51351 | 116.39910 | 96 ft | 13 kts | 175° |
| 2026-05-06 03:51 | 39.51234 | 116.39931 | 96 ft | 20 kts | 172° |
| 2026-05-06 03:51 | 39.51083 | 116.39956 | 96 ft | 23 kts | 174° |
| 2026-05-06 03:51 | 39.50931 | 116.39979 | 96 ft | 23 kts | 173° |
| 2026-05-06 03:51 | 39.50766 | 116.40005 | 96 ft | 25 kts | 173° |
| 2026-05-06 03:52 | 39.50635 | 116.40025 | 96 ft | 19 kts | 173° |
| 2026-05-06 03:52 | 39.50493 | 116.40048 | 97 ft | 22 kts | 173° |
| 2026-05-06 03:52 | 39.50336 | 116.40071 | 96 ft | 23 kts | 174° |
| 2026-05-06 03:52 | 39.50198 | 116.40096 | 95 ft | 20 kts | 172° |
| 2026-05-06 03:53 | 39.50049 | 116.40117 | 95 ft | 23 kts | 174° |
| 2026-05-06 03:53 | 39.49893 | 116.40139 | 96 ft | 22 kts | 175° |
| 2026-05-06 03:53 | 39.49740 | 116.40161 | 96 ft | 21 kts | 174° |
| 2026-05-06 03:53 | 39.49590 | 116.40175 | 97 ft | 22 kts | 178° |
| 2026-05-06 03:54 | 39.49436 | 116.40204 | 96 ft | 21 kts | 169° |
| 2026-05-06 03:54 | 39.49286 | 116.40230 | 95 ft | 19 kts | 169° |
| 2026-05-06 03:54 | 39.49154 | 116.40253 | 95 ft | 20 kts | 172° |
| 2026-05-06 03:54 | 39.49012 | 116.40274 | 96 ft | 20 kts | 167° |
| 2026-05-06 03:55 | 39.48870 | 116.40296 | 95 ft | 21 kts | 176° |
| 2026-05-06 03:55 | 39.48724 | 116.40319 | 96 ft | 22 kts | 172° |
| 2026-05-06 03:55 | 39.48588 | 116.40342 | 95 ft | 17 kts | 174° |
| 2026-05-06 03:55 | 39.48465 | 116.40356 | 96 ft | 16 kts | 190° |
| 2026-05-06 03:56 | 39.48419 | 116.40276 | 102 ft | 9 kts | 259° |
| 2026-05-06 03:56 | 39.48426 | 116.40212 | 103 ft | 6 kts | 291° |
| 2026-05-06 03:56 | 39.48454 | 116.40163 | 106 ft | 7 kts | 320° |
| 2026-05-06 03:56 | 39.48506 | 116.40138 | 103 ft | 9 kts | 347° |
| 2026-05-06 03:57 | 39.48576 | 116.40125 | 104 ft | 12 kts | 353° |
| 2026-05-06 03:57 | 39.48690 | 116.40107 | 106 ft | 5 kts | 3° |
| 2026-05-06 03:57 | 39.48691 | 116.40107 | 106 ft | 0 kts | 4° |
| 2026-05-06 03:57 | 39.48694 | 116.40107 | 105 ft | 6 kts | 359° |
| 2026-05-06 03:58 | 39.48989 | 116.40057 | 105 ft | 83 kts | 353° |
| 2026-05-06 03:58 | 39.49793 | 116.39934 | 104 ft | 150 kts | 355° |
| 2026-05-06 03:58 | 39.50947 | 116.39766 | 579 ft | 167 kts | 354° |
| 2026-05-06 03:58 | 39.52047 | 116.39608 | 1505 ft | 162 kts | 353° |
| 2026-05-06 03:59 | 39.53278 | 116.39425 | 1980 ft | 189 kts | 353° |
| 2026-05-06 03:59 | 39.54667 | 116.39212 | 2331 ft | 221 kts | 353° |
| 2026-05-06 03:59 | 39.56279 | 116.38916 | 2863 ft | 243 kts | 352° |
| 2026-05-06 03:59 | 39.57984 | 116.38611 | 3737 ft | 250 kts | 352° |
| 2026-05-06 04:00 | 39.59729 | 116.38314 | 4526 ft | 256 kts | 353° |
| 2026-05-06 04:00 | 39.61509 | 116.38021 | 4982 ft | 259 kts | 353° |
| 2026-05-06 04:00 | 39.63300 | 116.37731 | 5126 ft | 260 kts | 353° |
| 2026-05-06 04:00 | 39.65110 | 116.37620 | 5115 ft | 262 kts | 5° |
| 2026-05-06 04:01 | 39.66831 | 116.38337 | 5113 ft | 262 kts | 31° |
| 2026-05-06 04:01 | 39.68119 | 116.39976 | 5123 ft | 262 kts | 58° |
| 2026-05-06 04:01 | 39.68734 | 116.42185 | 5126 ft | 261 kts | 80° |
| 2026-05-06 04:01 | 39.68974 | 116.44524 | 5126 ft | 262 kts | 84° |
| 2026-05-06 04:02 | 39.69164 | 116.46883 | 5118 ft | 262 kts | 84° |
| 2026-05-06 04:02 | 39.69271 | 116.49215 | 5115 ft | 262 kts | 92° |
| 2026-05-06 04:02 | 39.68814 | 116.51523 | 5119 ft | 262 kts | 117° |
| 2026-05-06 04:02 | 39.67658 | 116.53282 | 5122 ft | 262 kts | 144° |
| 2026-05-06 04:03 | 39.66002 | 116.54221 | 5122 ft | 261 kts | 168° |
| 2026-05-06 04:03 | 39.64203 | 116.54566 | 5126 ft | 262 kts | 174° |
| 2026-05-06 04:03 | 39.62388 | 116.54811 | 5121 ft | 262 kts | 174° |
| 2026-05-06 04:03 | 39.60574 | 116.55061 | 5122 ft | 262 kts | 174° |
| 2026-05-06 04:04 | 39.58761 | 116.55348 | 5119 ft | 262 kts | 170° |
| 2026-05-06 04:04 | 39.57054 | 116.56144 | 5121 ft | 262 kts | 148° |
| 2026-05-06 04:04 | 39.55753 | 116.57776 | 5124 ft | 261 kts | 126° |
| 2026-05-06 04:04 | 39.54742 | 116.59735 | 5126 ft | 262 kts | 122° |
| 2026-05-06 04:05 | 39.53773 | 116.61735 | 5121 ft | 262 kts | 122° |
| 2026-05-06 04:05 | 39.52800 | 116.63735 | 5125 ft | 262 kts | 122° |
| 2026-05-06 04:05 | 39.51824 | 116.65725 | 5117 ft | 262 kts | 122° |
| 2026-05-06 04:05 | 39.50839 | 116.67718 | 5121 ft | 262 kts | 122° |
| 2026-05-06 04:06 | 39.49853 | 116.69711 | 5119 ft | 262 kts | 122° |
| 2026-05-06 04:06 | 39.48868 | 116.71697 | 5122 ft | 262 kts | 123° |
| 2026-05-06 04:06 | 39.47879 | 116.73679 | 5122 ft | 262 kts | 123° |
| 2026-05-06 04:06 | 39.46802 | 116.75580 | 5214 ft | 263 kts | 133° |
| 2026-05-06 04:07 | 39.45335 | 116.76991 | 5827 ft | 266 kts | 155° |
| 2026-05-06 04:07 | 39.43543 | 116.77512 | 6863 ft | 266 kts | 179° |
| 2026-05-06 04:07 | 39.41710 | 116.77403 | 7875 ft | 268 kts | 185° |
| 2026-05-06 04:07 | 39.39840 | 116.77162 | 8847 ft | 272 kts | 186° |
| 2026-05-06 04:08 | 39.37940 | 116.76894 | 9810 ft | 276 kts | 186° |
| 2026-05-06 04:08 | 39.36010 | 116.76620 | 10665 ft | 285 kts | 186° |
| 2026-05-06 04:08 | 39.33957 | 116.76328 | 11118 ft | 309 kts | 186° |
| 2026-05-06 04:08 | 39.31757 | 116.76016 | 11681 ft | 325 kts | 186° |
| 2026-05-06 04:09 | 39.29482 | 116.75693 | 12537 ft | 331 kts | 186° |
| 2026-05-06 04:09 | 39.27171 | 116.75366 | 13396 ft | 336 kts | 186° |
| 2026-05-06 04:09 | 39.24828 | 116.75035 | 14238 ft | 341 kts | 186° |
| 2026-05-06 04:09 | 39.22455 | 116.74699 | 15064 ft | 345 kts | 186° |
| 2026-05-06 04:10 | 39.20054 | 116.74360 | 15856 ft | 349 kts | 186° |
| 2026-05-06 04:10 | 39.17618 | 116.74016 | 16630 ft | 354 kts | 186° |
| 2026-05-06 04:10 | 39.15158 | 116.73669 | 17400 ft | 358 kts | 186° |
| 2026-05-06 04:10 | 39.12699 | 116.73322 | 18157 ft | 362 kts | 186° |
| 2026-05-06 04:11 | 39.10184 | 116.72968 | 18916 ft | 366 kts | 186° |
| 2026-05-06 04:11 | 39.07635 | 116.72609 | 19677 ft | 370 kts | 186° |
| 2026-05-06 04:11 | 39.05059 | 116.72247 | 20427 ft | 374 kts | 186° |
| 2026-05-06 04:11 | 39.02459 | 116.71881 | 21150 ft | 378 kts | 186° |
| 2026-05-06 04:12 | 38.99829 | 116.71512 | 21848 ft | 382 kts | 186° |
| 2026-05-06 04:12 | 38.97161 | 116.71137 | 22530 ft | 386 kts | 186° |
| 2026-05-06 04:12 | 38.94478 | 116.70761 | 23193 ft | 390 kts | 186° |
| 2026-05-06 04:12 | 38.91763 | 116.70380 | 23831 ft | 394 kts | 186° |
| 2026-05-06 04:13 | 38.89016 | 116.69995 | 24457 ft | 398 kts | 186° |
| 2026-05-06 04:13 | 38.86248 | 116.69608 | 25060 ft | 402 kts | 186° |
| 2026-05-06 04:13 | 38.83497 | 116.69223 | 25650 ft | 405 kts | 186° |
| 2026-05-06 04:13 | 38.80680 | 116.68830 | 26237 ft | 409 kts | 186° |
| 2026-05-06 04:14 | 38.77839 | 116.68433 | 26810 ft | 413 kts | 186° |
| 2026-05-06 04:14 | 38.74937 | 116.68028 | 27387 ft | 416 kts | 186° |
| 2026-05-06 04:14 | 38.72080 | 116.67630 | 27929 ft | 420 kts | 186° |
| 2026-05-06 04:14 | 38.69160 | 116.67224 | 28457 ft | 423 kts | 186° |
| 2026-05-06 04:15 | 38.66220 | 116.66815 | 28975 ft | 427 kts | 186° |
| 2026-05-06 04:15 | 38.63256 | 116.66404 | 29458 ft | 430 kts | 186° |
| 2026-05-06 04:15 | 38.60264 | 116.66022 | 29943 ft | 433 kts | 185° |
| 2026-05-06 04:15 | 38.57251 | 116.65675 | 30410 ft | 436 kts | 185° |
| 2026-05-06 04:16 | 38.54213 | 116.65339 | 30857 ft | 439 kts | 185° |
| 2026-05-06 04:16 | 38.51155 | 116.65003 | 31291 ft | 442 kts | 185° |
| 2026-05-06 04:16 | 38.48075 | 116.64662 | 31715 ft | 445 kts | 185° |
| 2026-05-06 04:16 | 38.44976 | 116.64314 | 32131 ft | 448 kts | 185° |
| 2026-05-06 04:17 | 38.41855 | 116.63960 | 32522 ft | 451 kts | 185° |
| 2026-05-06 04:17 | 38.38763 | 116.63607 | 32912 ft | 454 kts | 185° |
| 2026-05-06 04:17 | 38.35605 | 116.63246 | 33268 ft | 456 kts | 185° |
| 2026-05-06 04:17 | 38.32434 | 116.62927 | 33609 ft | 459 kts | 182° |
| 2026-05-06 04:18 | 38.29229 | 116.63024 | 33944 ft | 461 kts | 174° |
| 2026-05-06 04:18 | 38.26062 | 116.63704 | 34262 ft | 463 kts | 166° |
| 2026-05-06 04:18 | 38.22928 | 116.64719 | 34580 ft | 466 kts | 165° |
| 2026-05-06 04:18 | 38.19814 | 116.65841 | 34981 ft | 465 kts | 163° |
| 2026-05-06 04:19 | 38.16717 | 116.67009 | 35422 ft | 463 kts | 163° |
| 2026-05-06 04:19 | 38.13634 | 116.68187 | 35825 ft | 462 kts | 163° |
| 2026-05-06 04:19 | 38.10545 | 116.69365 | 36200 ft | 462 kts | 163° |
| 2026-05-06 04:19 | 38.07471 | 116.70541 | 36544 ft | 462 kts | 163° |
| 2026-05-06 04:20 | 38.04397 | 116.71724 | 36873 ft | 462 kts | 163° |
| 2026-05-06 04:20 | 38.01355 | 116.72894 | 37182 ft | 462 kts | 163° |
| 2026-05-06 04:20 | 37.98284 | 116.74072 | 37495 ft | 462 kts | 163° |
| 2026-05-06 04:20 | 37.95160 | 116.75265 | 37798 ft | 462 kts | 163° |
| 2026-05-06 04:21 | 37.92126 | 116.76420 | 38089 ft | 462 kts | 163° |
| 2026-05-06 04:21 | 37.89044 | 116.77591 | 38363 ft | 462 kts | 163° |
| 2026-05-06 04:21 | 37.85967 | 116.78758 | 38630 ft | 462 kts | 163° |
| 2026-05-06 04:21 | 37.82885 | 116.79926 | 38898 ft | 462 kts | 163° |
| 2026-05-06 04:22 | 37.79805 | 116.81092 | 39159 ft | 462 kts | 163° |
| 2026-05-06 04:22 | 37.76726 | 116.82257 | 39403 ft | 462 kts | 163° |
| 2026-05-06 04:22 | 37.73649 | 116.83420 | 39647 ft | 462 kts | 163° |
| 2026-05-06 04:23 | 37.67485 | 116.85747 | 40109 ft | 462 kts | 163° |
| 2026-05-06 04:23 | 37.64405 | 116.86909 | 40322 ft | 462 kts | 163° |
| 2026-05-06 04:23 | 37.61321 | 116.88071 | 40540 ft | 462 kts | 163° |
| 2026-05-06 04:23 | 37.58232 | 116.89233 | 40736 ft | 462 kts | 163° |
| 2026-05-06 04:24 | 37.55156 | 116.90390 | 40942 ft | 462 kts | 163° |
| 2026-05-06 04:24 | 37.52068 | 116.91551 | 41076 ft | 464 kts | 163° |
| 2026-05-06 04:24 | 37.48960 | 116.92717 | 41105 ft | 468 kts | 163° |
| 2026-05-06 04:25 | 37.42679 | 116.95073 | 41103 ft | 472 kts | 163° |
| 2026-05-06 04:25 | 37.36513 | 116.97381 | 41093 ft | 472 kts | 163° |
| 2026-05-06 04:26 | 37.30218 | 116.99733 | 41102 ft | 472 kts | 163° |
| 2026-05-06 04:26 | 37.24078 | 117.02305 | 41108 ft | 472 kts | 159° |
| 2026-05-06 04:27 | 37.17953 | 117.05294 | 41100 ft | 472 kts | 159° |
| 2026-05-06 04:27 | 37.11848 | 117.08255 | 41102 ft | 472 kts | 159° |
| 2026-05-06 04:28 | 37.05702 | 117.11155 | 41096 ft | 472 kts | 159° |
| 2026-05-06 04:28 | 36.99546 | 117.14020 | 41103 ft | 472 kts | 160° |
| 2026-05-06 04:29 | 36.93387 | 117.16878 | 41102 ft | 472 kts | 160° |
| 2026-05-06 04:29 | 36.87227 | 117.19728 | 41100 ft | 472 kts | 160° |
| 2026-05-06 04:30 | 36.80829 | 117.21448 | 41096 ft | 471 kts | 176° |
| 2026-05-06 04:30 | 36.74265 | 117.21637 | 41100 ft | 472 kts | 180° |
| 2026-05-06 04:31 | 36.67731 | 117.21558 | 41099 ft | 472 kts | 181° |
| 2026-05-06 04:31 | 36.61155 | 117.21461 | 41102 ft | 473 kts | 180° |
| 2026-05-06 04:32 | 36.54559 | 117.21395 | 41108 ft | 475 kts | 180° |
| 2026-05-06 04:32 | 36.49062 | 117.21355 | 41096 ft | 475 kts | 180° |
| 2026-05-06 04:33 | 36.42448 | 117.21573 | 41099 ft | 475 kts | 173° |
| 2026-05-06 04:33 | 36.35993 | 117.23402 | 41099 ft | 476 kts | 164° |
| 2026-05-06 04:34 | 36.29647 | 117.25735 | 41104 ft | 474 kts | 163° |
| 2026-05-06 04:34 | 36.23343 | 117.28129 | 41097 ft | 473 kts | 163° |
| 2026-05-06 04:35 | 36.17183 | 117.30442 | 41098 ft | 473 kts | 163° |
| 2026-05-06 04:35 | 36.10921 | 117.32766 | 41099 ft | 473 kts | 163° |
| 2026-05-06 04:36 | 36.04612 | 117.35096 | 41100 ft | 474 kts | 163° |
| 2026-05-06 04:36 | 35.98282 | 117.37435 | 41104 ft | 475 kts | 163° |
| 2026-05-06 04:37 | 35.91972 | 117.39798 | 41100 ft | 473 kts | 163° |
| 2026-05-06 04:37 | 35.85678 | 117.42156 | 41104 ft | 473 kts | 163° |
| 2026-05-06 04:38 | 35.79377 | 117.44512 | 41105 ft | 473 kts | 163° |
| 2026-05-06 04:38 | 35.73067 | 117.46865 | 41098 ft | 473 kts | 163° |
| 2026-05-06 04:39 | 35.66761 | 117.49212 | 41106 ft | 473 kts | 163° |
| 2026-05-06 04:39 | 35.60461 | 117.51554 | 41093 ft | 473 kts | 163° |
| 2026-05-06 04:40 | 35.54158 | 117.53892 | 41100 ft | 473 kts | 163° |
| 2026-05-06 04:40 | 35.47879 | 117.56218 | 41098 ft | 474 kts | 163° |
| 2026-05-06 04:41 | 35.41562 | 117.58554 | 41095 ft | 473 kts | 163° |
| 2026-05-06 04:41 | 35.35292 | 117.60869 | 41098 ft | 474 kts | 163° |
| 2026-05-06 04:42 | 35.28939 | 117.63211 | 41100 ft | 474 kts | 163° |
| 2026-05-06 04:42 | 35.22661 | 117.65521 | 41108 ft | 474 kts | 163° |
| 2026-05-06 04:43 | 35.16346 | 117.67841 | 41100 ft | 473 kts | 163° |
| 2026-05-06 04:43 | 35.10041 | 117.70154 | 41103 ft | 473 kts | 163° |
| 2026-05-06 04:44 | 35.03733 | 117.72472 | 41104 ft | 473 kts | 163° |
| 2026-05-06 04:44 | 34.97424 | 117.74782 | 41101 ft | 473 kts | 163° |
| 2026-05-06 04:45 | 34.91113 | 117.77087 | 41105 ft | 473 kts | 163° |
| 2026-05-06 04:45 | 34.84843 | 117.79375 | 41107 ft | 473 kts | 163° |
| 2026-05-06 04:46 | 34.78552 | 117.81689 | 41105 ft | 472 kts | 163° |
| 2026-05-06 04:46 | 34.72244 | 117.83957 | 41101 ft | 472 kts | 163° |
| 2026-05-06 04:47 | 34.65936 | 117.86211 | 41104 ft | 472 kts | 163° |
| 2026-05-06 04:47 | 34.59631 | 117.88468 | 41100 ft | 472 kts | 163° |
| 2026-05-06 04:48 | 34.53326 | 117.90727 | 41101 ft | 472 kts | 163° |
| 2026-05-06 04:48 | 34.47031 | 117.92981 | 41095 ft | 472 kts | 163° |
| 2026-05-06 04:49 | 34.40723 | 117.95236 | 41101 ft | 472 kts | 163° |
| 2026-05-06 04:49 | 34.34455 | 117.97472 | 41098 ft | 472 kts | 163° |
| 2026-05-06 04:50 | 34.28156 | 117.99717 | 41106 ft | 472 kts | 163° |
| 2026-05-06 04:50 | 34.21858 | 118.01993 | 41100 ft | 472 kts | 163° |
| 2026-05-06 04:51 | 34.15569 | 118.04291 | 41105 ft | 472 kts | 163° |
| 2026-05-06 04:51 | 34.09281 | 118.06584 | 41103 ft | 472 kts | 163° |
| 2026-05-06 04:52 | 34.02988 | 118.08870 | 41099 ft | 472 kts | 163° |
| 2026-05-06 04:52 | 33.96741 | 118.11137 | 41100 ft | 472 kts | 163° |
| 2026-05-06 04:53 | 33.90411 | 118.13442 | 41107 ft | 472 kts | 163° |
| 2026-05-06 04:53 | 33.84137 | 118.15764 | 41094 ft | 472 kts | 160° |
| 2026-05-06 04:54 | 33.78314 | 118.19266 | 41098 ft | 471 kts | 147° |
| 2026-05-06 04:54 | 33.72857 | 118.23651 | 41094 ft | 472 kts | 145° |
| 2026-05-06 04:55 | 33.67474 | 118.28176 | 41096 ft | 472 kts | 145° |
| 2026-05-06 04:55 | 33.62085 | 118.32696 | 41106 ft | 472 kts | 145° |
| 2026-05-06 04:56 | 33.56691 | 118.37181 | 41097 ft | 472 kts | 145° |
| 2026-05-06 04:56 | 33.51282 | 118.41657 | 41101 ft | 472 kts | 145° |
| 2026-05-06 04:57 | 33.45913 | 118.46089 | 41102 ft | 472 kts | 145° |
| 2026-05-06 04:57 | 33.40500 | 118.50553 | 41101 ft | 472 kts | 145° |
| 2026-05-06 04:58 | 33.35088 | 118.55010 | 41098 ft | 472 kts | 145° |
| 2026-05-06 04:58 | 33.29681 | 118.59456 | 41095 ft | 472 kts | 145° |
| 2026-05-06 04:59 | 33.24263 | 118.63905 | 41103 ft | 472 kts | 145° |
| 2026-05-06 04:59 | 33.18856 | 118.68351 | 41099 ft | 472 kts | 145° |
| 2026-05-06 05:00 | 33.13461 | 118.72832 | 41101 ft | 472 kts | 145° |
| 2026-05-06 05:00 | 33.08112 | 118.77278 | 41096 ft | 472 kts | 145° |
| 2026-05-06 05:01 | 33.02722 | 118.81746 | 41105 ft | 472 kts | 145° |
| 2026-05-06 05:01 | 32.97325 | 118.86209 | 41100 ft | 472 kts | 145° |
| 2026-05-06 05:02 | 32.91924 | 118.90667 | 41099 ft | 472 kts | 145° |
| 2026-05-06 05:02 | 32.89225 | 118.92893 | 40957 ft | 471 kts | 145° |
| 2026-05-06 05:02 | 32.86530 | 118.95114 | 40710 ft | 469 kts | 145° |
| 2026-05-06 05:02 | 32.83880 | 118.97298 | 40465 ft | 469 kts | 145° |
| 2026-05-06 05:03 | 32.81200 | 118.99515 | 40217 ft | 469 kts | 145° |
| 2026-05-06 05:03 | 32.78526 | 119.01737 | 39964 ft | 469 kts | 145° |
| 2026-05-06 05:03 | 32.75852 | 119.03962 | 39722 ft | 469 kts | 145° |
| 2026-05-06 05:03 | 32.73182 | 119.06182 | 39482 ft | 469 kts | 145° |
| 2026-05-06 05:04 | 32.70509 | 119.08401 | 39225 ft | 469 kts | 145° |
| 2026-05-06 05:04 | 32.67832 | 119.10621 | 38969 ft | 467 kts | 145° |
| 2026-05-06 05:04 | 32.65176 | 119.12820 | 38715 ft | 465 kts | 145° |
| 2026-05-06 05:04 | 32.62521 | 119.15015 | 38452 ft | 465 kts | 145° |
| 2026-05-06 05:05 | 32.59854 | 119.17220 | 37979 ft | 468 kts | 145° |
| 2026-05-06 05:05 | 32.57177 | 119.19430 | 37484 ft | 469 kts | 145° |
| 2026-05-06 05:05 | 32.54504 | 119.21636 | 36987 ft | 469 kts | 145° |
| 2026-05-06 05:05 | 32.51821 | 119.23848 | 36488 ft | 469 kts | 145° |
| 2026-05-06 05:06 | 32.49148 | 119.26050 | 35998 ft | 469 kts | 145° |
| 2026-05-06 05:06 | 32.46466 | 119.28258 | 35492 ft | 469 kts | 145° |
| 2026-05-06 05:06 | 32.43784 | 119.30465 | 35008 ft | 470 kts | 145° |
| 2026-05-06 05:06 | 32.41093 | 119.32677 | 34498 ft | 471 kts | 145° |
| 2026-05-06 05:07 | 32.38404 | 119.34886 | 33997 ft | 469 kts | 145° |
| 2026-05-06 05:07 | 32.35772 | 119.37047 | 33504 ft | 466 kts | 145° |
| 2026-05-06 05:07 | 32.33114 | 119.39227 | 33008 ft | 463 kts | 145° |
| 2026-05-06 05:07 | 32.30474 | 119.41391 | 32511 ft | 459 kts | 145° |
| 2026-05-06 05:08 | 32.27861 | 119.43531 | 32004 ft | 455 kts | 145° |
| 2026-05-06 05:08 | 32.25267 | 119.45655 | 31504 ft | 452 kts | 145° |
| 2026-05-06 05:08 | 32.22692 | 119.47761 | 31000 ft | 448 kts | 145° |
| 2026-05-06 05:08 | 32.20141 | 119.49847 | 30503 ft | 445 kts | 145° |
| 2026-05-06 05:09 | 32.17605 | 119.51918 | 30010 ft | 442 kts | 145° |
| 2026-05-06 05:09 | 32.15088 | 119.53972 | 29506 ft | 438 kts | 145° |
| 2026-05-06 05:09 | 32.12587 | 119.56013 | 29004 ft | 435 kts | 145° |
| 2026-05-06 05:09 | 32.10103 | 119.58038 | 28496 ft | 431 kts | 145° |
| 2026-05-06 05:10 | 32.07645 | 119.60040 | 27993 ft | 428 kts | 145° |
| 2026-05-06 05:10 | 32.05232 | 119.62004 | 27508 ft | 425 kts | 145° |
| 2026-05-06 05:10 | 32.02808 | 119.63977 | 27005 ft | 422 kts | 145° |
| 2026-05-06 05:10 | 32.00399 | 119.65935 | 26506 ft | 418 kts | 145° |
| 2026-05-06 05:11 | 31.98006 | 119.67880 | 26007 ft | 415 kts | 145° |
| 2026-05-06 05:11 | 31.95719 | 119.69920 | 25509 ft | 412 kts | 139° |
| 2026-05-06 05:11 | 31.93675 | 119.72280 | 24994 ft | 409 kts | 131° |
| 2026-05-06 05:11 | 31.91928 | 119.74907 | 24512 ft | 406 kts | 126° |
| 2026-05-06 05:12 | 31.90304 | 119.77605 | 24002 ft | 403 kts | 124° |
| 2026-05-06 05:12 | 31.88735 | 119.80318 | 23501 ft | 400 kts | 124° |
| 2026-05-06 05:12 | 31.87197 | 119.83024 | 23002 ft | 397 kts | 123° |
| 2026-05-06 05:12 | 31.85670 | 119.85718 | 22502 ft | 394 kts | 123° |
| 2026-05-06 05:13 | 31.84154 | 119.88384 | 22007 ft | 391 kts | 124° |
| 2026-05-06 05:13 | 31.82662 | 119.90998 | 21507 ft | 388 kts | 124° |
| 2026-05-06 05:13 | 31.81159 | 119.93615 | 21006 ft | 385 kts | 124° |
| 2026-05-06 05:13 | 31.79662 | 119.96214 | 20502 ft | 382 kts | 124° |
| 2026-05-06 05:14 | 31.78175 | 119.98790 | 20003 ft | 379 kts | 124° |
| 2026-05-06 05:14 | 31.76701 | 120.01341 | 19519 ft | 376 kts | 124° |
| 2026-05-06 05:14 | 31.75232 | 120.03880 | 19006 ft | 373 kts | 124° |
| 2026-05-06 05:14 | 31.73774 | 120.06398 | 18509 ft | 371 kts | 124° |
| 2026-05-06 05:15 | 31.72343 | 120.08871 | 17997 ft | 368 kts | 124° |
| 2026-05-06 05:15 | 31.70950 | 120.11274 | 17525 ft | 365 kts | 124° |
| 2026-05-06 05:15 | 31.69525 | 120.13733 | 17022 ft | 363 kts | 124° |
| 2026-05-06 05:15 | 31.68112 | 120.16169 | 16520 ft | 360 kts | 124° |
| 2026-05-06 05:16 | 31.66708 | 120.18590 | 16020 ft | 357 kts | 124° |
| 2026-05-06 05:16 | 31.65315 | 120.20988 | 15515 ft | 355 kts | 124° |
| 2026-05-06 05:16 | 31.63929 | 120.23373 | 15017 ft | 352 kts | 124° |
| 2026-05-06 05:16 | 31.62570 | 120.25712 | 14524 ft | 349 kts | 124° |
| 2026-05-06 05:17 | 31.61203 | 120.28062 | 14023 ft | 347 kts | 124° |
| 2026-05-06 05:17 | 31.59864 | 120.30398 | 13525 ft | 344 kts | 122° |
| 2026-05-06 05:17 | 31.58774 | 120.32884 | 13015 ft | 342 kts | 112° |
| 2026-05-06 05:17 | 31.57924 | 120.35476 | 12530 ft | 339 kts | 110° |
| 2026-05-06 05:18 | 31.57133 | 120.38073 | 12017 ft | 337 kts | 109° |
| 2026-05-06 05:18 | 31.56360 | 120.40652 | 11522 ft | 334 kts | 109° |
| 2026-05-06 05:18 | 31.55593 | 120.43216 | 11021 ft | 332 kts | 109° |
| 2026-05-06 05:18 | 31.54835 | 120.45751 | 10520 ft | 322 kts | 109° |
| 2026-05-06 05:19 | 31.54118 | 120.48152 | 10022 ft | 303 kts | 109° |
| 2026-05-06 05:19 | 31.53440 | 120.50422 | 9500 ft | 287 kts | 109° |
| 2026-05-06 05:19 | 31.52792 | 120.52592 | 9018 ft | 279 kts | 109° |
| 2026-05-06 05:19 | 31.52153 | 120.54729 | 8505 ft | 276 kts | 109° |
| 2026-05-06 05:20 | 31.51519 | 120.56847 | 8008 ft | 274 kts | 109° |
| 2026-05-06 05:20 | 31.50895 | 120.58932 | 7734 ft | 276 kts | 109° |
| 2026-05-06 05:20 | 31.50260 | 120.61048 | 7493 ft | 273 kts | 109° |
| 2026-05-06 05:20 | 31.49634 | 120.63135 | 7253 ft | 271 kts | 109° |
| 2026-05-06 05:21 | 31.49011 | 120.65212 | 7001 ft | 270 kts | 109° |
| 2026-05-06 05:21 | 31.48599 | 120.66584 | 6838 ft | 269 kts | 109° |
| 2026-05-06 05:21 | 31.47977 | 120.68652 | 6589 ft | 268 kts | 109° |
| 2026-05-06 05:21 | 31.47360 | 120.70709 | 6337 ft | 267 kts | 109° |
| 2026-05-06 05:22 | 31.46743 | 120.72760 | 6083 ft | 266 kts | 109° |
| 2026-05-06 05:22 | 31.46128 | 120.74803 | 5836 ft | 265 kts | 109° |
| 2026-05-06 05:22 | 31.45308 | 120.77524 | 5500 ft | 264 kts | 109° |
| 2026-05-06 05:22 | 31.44706 | 120.79522 | 5253 ft | 263 kts | 109° |
| 2026-05-06 05:23 | 31.44295 | 120.80885 | 5084 ft | 262 kts | 109° |
| 2026-05-06 05:23 | 31.43491 | 120.83549 | 4864 ft | 262 kts | 109° |
| 2026-05-06 05:23 | 31.42484 | 120.86883 | 4657 ft | 261 kts | 109° |
| 2026-05-06 05:24 | 31.41880 | 120.88881 | 4528 ft | 260 kts | 109° |
| 2026-05-06 05:24 | 31.41277 | 120.90871 | 4406 ft | 260 kts | 109° |
| 2026-05-06 05:24 | 31.40674 | 120.92864 | 4283 ft | 259 kts | 109° |
| 2026-05-06 05:24 | 31.40074 | 120.94853 | 4175 ft | 258 kts | 109° |
| 2026-05-06 05:25 | 31.39701 | 120.96913 | 4144 ft | 259 kts | 95° |
| 2026-05-06 05:25 | 31.39618 | 120.99002 | 4003 ft | 254 kts | 91° |
| 2026-05-06 05:25 | 31.39605 | 121.01040 | 3893 ft | 244 kts | 90° |
| 2026-05-06 05:25 | 31.39610 | 121.02978 | 3772 ft | 233 kts | 90° |
| 2026-05-06 05:26 | 31.39621 | 121.04832 | 3623 ft | 223 kts | 89° |
| 2026-05-06 05:26 | 31.39635 | 121.06603 | 3516 ft | 212 kts | 89° |
| 2026-05-06 05:26 | 31.39649 | 121.08285 | 3404 ft | 200 kts | 89° |
| 2026-05-06 05:26 | 31.39664 | 121.09908 | 3325 ft | 207 kts | 89° |
| 2026-05-06 05:27 | 31.39680 | 121.11625 | 3262 ft | 210 kts | 89° |
| 2026-05-06 05:27 | 31.39695 | 121.13317 | 3185 ft | 210 kts | 89° |
| 2026-05-06 05:27 | 31.39710 | 121.15030 | 3101 ft | 211 kts | 89° |
| 2026-05-06 05:27 | 31.39726 | 121.16738 | 3014 ft | 212 kts | 89° |
| 2026-05-06 05:28 | 31.39741 | 121.18454 | 2979 ft | 214 kts | 89° |
| 2026-05-06 05:28 | 31.39756 | 121.20195 | 2972 ft | 213 kts | 89° |
| 2026-05-06 05:28 | 31.39771 | 121.21939 | 2966 ft | 215 kts | 89° |
| 2026-05-06 05:28 | 31.39786 | 121.23694 | 2968 ft | 216 kts | 89° |
| 2026-05-06 05:29 | 31.39801 | 121.25448 | 2972 ft | 215 kts | 89° |
| 2026-05-06 05:29 | 31.39816 | 121.27198 | 2972 ft | 215 kts | 89° |
| 2026-05-06 05:29 | 31.39830 | 121.28947 | 2972 ft | 215 kts | 89° |
| 2026-05-06 05:29 | 31.39844 | 121.30692 | 2973 ft | 215 kts | 89° |
| 2026-05-06 05:30 | 31.39858 | 121.32438 | 2973 ft | 215 kts | 89° |
| 2026-05-06 05:30 | 31.39872 | 121.34185 | 2972 ft | 215 kts | 89° |
| 2026-05-06 05:30 | 31.39886 | 121.35933 | 2972 ft | 214 kts | 89° |
| 2026-05-06 05:30 | 31.39898 | 121.37623 | 2973 ft | 215 kts | 89° |
| 2026-05-06 05:31 | 31.39911 | 121.39371 | 2972 ft | 215 kts | 89° |
| 2026-05-06 05:31 | 31.39923 | 121.41117 | 2973 ft | 215 kts | 89° |
| 2026-05-06 05:31 | 31.39936 | 121.42868 | 2973 ft | 215 kts | 89° |
| 2026-05-06 05:31 | 31.39948 | 121.44612 | 2972 ft | 215 kts | 89° |
| 2026-05-06 05:32 | 31.39960 | 121.46356 | 2973 ft | 215 kts | 89° |
| 2026-05-06 05:32 | 31.39971 | 121.48104 | 2972 ft | 215 kts | 89° |
| 2026-05-06 05:32 | 31.39983 | 121.49854 | 2973 ft | 214 kts | 89° |
| 2026-05-06 05:32 | 31.39995 | 121.51599 | 2972 ft | 215 kts | 89° |
| 2026-05-06 05:33 | 31.40006 | 121.53342 | 2972 ft | 215 kts | 89° |
| 2026-05-06 05:33 | 31.40017 | 121.55092 | 2973 ft | 215 kts | 89° |
| 2026-05-06 05:33 | 31.40052 | 121.56817 | 2971 ft | 215 kts | 85° |
| 2026-05-06 05:33 | 31.40289 | 121.58562 | 2973 ft | 214 kts | 78° |
| 2026-05-06 05:34 | 31.40602 | 121.60247 | 2972 ft | 214 kts | 77° |
| 2026-05-06 05:34 | 31.40916 | 121.61888 | 2973 ft | 198 kts | 77° |
| 2026-05-06 05:34 | 31.41205 | 121.63403 | 2981 ft | 185 kts | 77° |
| 2026-05-06 05:34 | 31.41482 | 121.64870 | 2975 ft | 184 kts | 77° |
| 2026-05-06 05:35 | 31.41721 | 121.66341 | 2969 ft | 184 kts | 84° |
| 2026-05-06 05:35 | 31.41679 | 121.67115 | 2947 ft | 186 kts | 105° |
| 2026-05-06 05:36 | 31.41676 | 121.67129 | 2942 ft | 186 kts | 105° |
| 2026-05-06 05:36 | 31.40953 | 121.68273 | 2987 ft | 184 kts | 144° |
| 2026-05-06 05:36 | 31.39840 | 121.69000 | 2984 ft | 183 kts | 157° |
| 2026-05-06 05:36 | 31.38667 | 121.69507 | 2973 ft | 172 kts | 161° |
| 2026-05-06 05:37 | 31.37590 | 121.69923 | 2951 ft | 154 kts | 162° |
| 2026-05-06 05:37 | 31.36623 | 121.70288 | 2971 ft | 149 kts | 162° |
| 2026-05-06 05:37 | 31.35652 | 121.70658 | 2972 ft | 148 kts | 162° |
| 2026-05-06 05:37 | 31.34673 | 121.71034 | 2973 ft | 148 kts | 162° |
| 2026-05-06 05:38 | 31.33701 | 121.71408 | 2971 ft | 142 kts | 162° |
| 2026-05-06 05:38 | 31.32801 | 121.71754 | 2968 ft | 132 kts | 162° |
| 2026-05-06 05:38 | 31.31930 | 121.72087 | 2973 ft | 131 kts | 162° |
| 2026-05-06 05:38 | 31.31061 | 121.72419 | 2973 ft | 131 kts | 162° |
| 2026-05-06 05:39 | 31.30191 | 121.72750 | 2972 ft | 132 kts | 162° |
| 2026-05-06 05:39 | 31.29317 | 121.73082 | 2862 ft | 132 kts | 162° |
| 2026-05-06 05:39 | 31.28445 | 121.73413 | 2686 ft | 131 kts | 162° |
| 2026-05-06 05:39 | 31.27579 | 121.73742 | 2496 ft | 131 kts | 162° |
| 2026-05-06 05:40 | 31.26716 | 121.74070 | 2328 ft | 130 kts | 162° |
| 2026-05-06 05:40 | 31.25853 | 121.74399 | 2149 ft | 130 kts | 162° |
| 2026-05-06 05:40 | 31.24995 | 121.74724 | 1980 ft | 130 kts | 162° |
| 2026-05-06 05:40 | 31.24138 | 121.75050 | 1800 ft | 130 kts | 162° |
| 2026-05-06 05:41 | 31.23291 | 121.75372 | 1638 ft | 131 kts | 162° |
| 2026-05-06 05:41 | 31.22417 | 121.75704 | 1458 ft | 131 kts | 162° |
| 2026-05-06 05:41 | 31.21564 | 121.76027 | 1289 ft | 130 kts | 162° |
| 2026-05-06 05:41 | 31.20716 | 121.76349 | 1114 ft | 130 kts | 162° |
| 2026-05-06 05:42 | 31.19863 | 121.76673 | 945 ft | 130 kts | 162° |
| 2026-05-06 05:42 | 31.19006 | 121.76998 | 774 ft | 129 kts | 162° |
| 2026-05-06 05:42 | 31.18913 | 121.77034 | 753 ft | 129 kts | 162° |
| 2026-05-06 05:42 | 31.18136 | 121.77329 | 600 ft | 129 kts | 162° |
| 2026-05-06 05:43 | 31.17292 | 121.77649 | 424 ft | 128 kts | 162° |
| 2026-05-06 05:43 | 31.16442 | 121.77973 | 254 ft | 129 kts | 162° |
| 2026-05-06 05:43 | 31.15600 | 121.78288 | 114 ft | 129 kts | 162° |
| 2026-05-06 05:43 | 31.14789 | 121.78595 | 43 ft | 118 kts | 162° |
| 2026-05-06 05:44 | 31.14067 | 121.78867 | 27 ft | 94 kts | 162° |
| 2026-05-06 05:44 | 31.13689 | 121.79011 | 28 ft | 39 kts | 157° |
| 2026-05-06 05:44 | 31.13496 | 121.79173 | 30 ft | 33 kts | 141° |
| 2026-05-06 05:44 | 31.13340 | 121.79345 | 30 ft | 27 kts | 121° |
| 2026-05-06 05:45 | 31.13355 | 121.79551 | 29 ft | 25 kts | 72° |
| 2026-05-06 05:45 | 31.13407 | 121.79753 | 28 ft | 26 kts | 73° |
| 2026-05-06 05:45 | 31.13465 | 121.79945 | 29 ft | 21 kts | 72° |
| 2026-05-06 05:45 | 31.13509 | 121.80093 | 29 ft | 20 kts | 62° |
| 2026-05-06 05:46 | 31.13584 | 121.80116 | 29 ft | 11 kts | 343° |
| 2026-05-06 05:46 | 31.13669 | 121.80086 | 29 ft | 15 kts | 344° |
| 2026-05-06 05:46 | 31.13774 | 121.80044 | 29 ft | 17 kts | 338° |
| 2026-05-06 05:46 | 31.13894 | 121.79996 | 29 ft | 20 kts | 342° |
| 2026-05-06 05:47 | 31.14029 | 121.79946 | 29 ft | 23 kts | 342° |
| 2026-05-06 05:47 | 31.14193 | 121.79886 | 29 ft | 26 kts | 342° |
| 2026-05-06 05:47 | 31.14368 | 121.79818 | 29 ft | 27 kts | 341° |
| 2026-05-06 05:47 | 31.14548 | 121.79742 | 29 ft | 28 kts | 336° |
| 2026-05-06 05:48 | 31.14726 | 121.79682 | 29 ft | 26 kts | 341° |
| 2026-05-06 05:48 | 31.14889 | 121.79621 | 29 ft | 22 kts | 343° |
| 2026-05-06 05:48 | 31.15007 | 121.79584 | 29 ft | 12 kts | 0° |
| 2026-05-06 05:48 | 31.15050 | 121.79625 | 29 ft | 8 kts | 59° |
| 2026-05-06 05:49 | 31.15053 | 121.79632 | 29 ft | 1 kts | 62° |
| 2026-05-06 05:49 | 31.15061 | 121.79650 | 29 ft | 4 kts | 68° |
| 2026-05-06 05:49 | 31.15065 | 121.79662 | 29 ft | 0 kts | 69° |
| 2026-05-06 05:50 | 31.15066 | 121.79667 | 29 ft | 0 kts | 76° |
| 2026-05-06 05:50 | 31.15067 | 121.79669 | 29 ft | 1 kts | 71° |
| 2026-05-06 05:51 | 31.15069 | 121.79676 | 29 ft | 0 kts | 70° |